Historyczne dane pomiarowe

Dodano dane terminowe – wersja testowa.

Dane z okresu 1951-2019

Wersja bazy: 1.34 [2019-03-16, lista zmian], aktualizacja planowana na 2019-04-15

Dane meteo z obszaru Polski uzyskane na podstawie danych udostępnionych przez Instytut Meteorologii i Gospodarki Wodnej – Państwowy Instytut Badawczy.

 

Wybierz Datę:    

       

TemperaturaWilgotnośćWiatrCiśnienieOpadyŚniegCzas trwania zjawisk
 Stacja t tx tn tng RH VA  wxwx mslp ppp RRR   cm mm wxwxwxwxwxwxwx
1987-08-14 15.5 21.6 10.1 6.9 73.5- 7.3 0.7---- 2.1------------
1987-08-13 12.3 16.0 6.7 4.7 83.0- 5.7 1.7---- 0.0------------
1987-08-12 13.1 17.8 8.4 7.0 70.3- 5.7 3.7---- 0.0------------
1987-08-11 13.8 17.1 11.4 10.8 82.0- 6.3 2.7---- 13.5------------
1987-08-10 15.6 19.1 13.9 13.0 86.5- 7.7 1.3---- 0.1------------
1987-08-09 17.4 24.1 11.3 8.9 67.0- 6.0 0.3---- 0.8------------
1987-08-08 14.1 20.1 10.9 10.8 77.5- 6.3 0.7---- 0.1------------
1987-08-07 12.7 19.6 8.6 7.3 74.3- 4.7 1.3---- 2.1------------
1987-08-06 13.0 17.1 9.1 7.4 74.0- 6.7 1.3---- 1.0------------
1987-08-05 13.5 18.6 7.4 5.9 71.5- 6.0 0.7---- 0.0------------
1987-08-04 14.8 19.4 10.4 7.8 79.5- 7.3 1.3---- 3.9------------
1987-08-03 14.7 19.0 11.4 11.4 73.5- 5.7 2.0---- 0.0------------
1987-08-02 15.7 19.1 12.9 11.8 72.3- 6.7 2.7---- 2.7------------
1987-08-01 16.6 21.8 9.6 7.4 72.8- 6.7 2.0---- 3.4------------
1987-07-31 16.8 20.6 15.4 13.2 82.3- 8.0 1.3---- 1.5------------
1987-07-30 17.7 24.2 11.8 9.3 73.5- 5.0 1.0---- 0.0------------
1987-07-29 14.5 19.6 10.4 8.8 74.5- 7.3 0.0---- 0.0------------
1987-07-28 14.1 17.8 11.8 10.8 85.5- 6.3 1.7---- 1.6------------
1987-07-27 12.5 17.1 8.7 7.6 74.0- 5.7 3.0---- 0.9------------
1987-07-26 13.6 17.6 11.2 10.8 83.0- 8.0 1.0---- 14.6------------
1987-07-25 19.6 24.1 17.2 15.7 77.8- 5.0 1.0---- 12.7------------
1987-07-24 21.0 26.3 16.5 11.8 76.8- 7.7 1.0---- 2.5------------
1987-07-23 22.2 28.7 14.4 11.8 68.5- 2.7 0.0---- 0.0------------
1987-07-22 21.4 26.6 14.9 15.7 76.3- 6.3 1.0---- 0.9------------
1987-07-21 20.1 26.4 13.1 10.1 71.0- 4.7 0.3---- 0.0------------
1987-07-20 21.3 26.0 18.9 17.9 76.5- 4.0 1.7---- 0.0------------
1987-07-19 20.1 25.1 15.6 14.9 81.0- 6.7 4.0---- 0.0------------
1987-07-18 20.9 25.3 17.7 16.7 84.0- 6.7 1.0---- 0.0------------
1987-07-17 19.9 26.6 14.6 13.4 71.0- 7.3 2.0---- 6.9------------
1987-07-16 20.3 26.6 11.6 8.7 57.3- 5.7 0.7---- 0.0------------
1987-07-15 17.1 24.1 8.7 4.9 63.3- 3.3 0.7---- 0.0------------
1987-07-14 15.8 19.4 10.4 7.1 71.3- 2.7 2.3---- 0.0------------
1987-07-13 19.1 22.8 11.9 8.3 71.8- 4.3 1.7---- 0.0------------
1987-07-12 21.2 29.5 15.0 12.8 75.5- 7.0 4.0---- 0.8------------
1987-07-11 16.9 22.8 8.6 5.7 70.0- 6.3 1.7---- 0.0------------
1987-07-10 15.0 19.5 11.2 9.5 69.8- 3.0 3.0---- 0.0------------
1987-07-09 17.9 24.9 14.4 14.1 84.5- 8.0 2.7---- 2.4------------
1987-07-08 21.9 29.4 13.9 9.6 61.3- 2.3 2.3---- 0.0------------
1987-07-07 19.8 27.0 10.6 5.9 64.8- 1.3 1.0---- 0.0------------
1987-07-06 18.2 23.8 8.9 9.3 59.5- 2.0 0.7---- 0.0------------
1987-07-05 17.1 21.8 13.7 12.6 66.3- 5.7 2.3---- 0.1------------
1987-07-04 18.2 22.2 14.2 11.3 61.0- 7.7 1.3---- 0.0------------
1987-07-03 19.7 24.2 16.4 15.2 65.5- 8.0 2.3---- 0.0------------
1987-07-02 20.8 28.2 19.6 19.0 70.5- 8.0 4.0---- 0.0------------
1987-07-01 26.0 31.8 19.4 15.9 67.8- 5.3 1.0---- 0.0------------
1987-06-30 23.8 29.1 18.4 16.5 73.5- 5.3 1.3---- 0.0------------
1987-06-29 20.0 24.6 11.4 8.5 68.3- 4.0 0.7---- 0.0------------
1987-06-28 18.6 24.6 13.2 10.1 81.0- 8.0 1.7---- 0.0------------
1987-06-27 18.3 22.8 15.4 14.2 78.3- 7.3 2.3---- 0.1------------
1987-06-26 16.6 23.3 8.9 6.1 68.0- 4.0 0.7---- 1.5------------
1987-06-25 14.3 18.6 12.7 11.3 81.0- 7.3 2.3---- 0.0------------
1987-06-24 16.7 21.4 13.4 11.9 72.5- 5.7 1.0---- 5.6------------
1987-06-23 16.9 21.6 12.9 10.9 81.0- 7.3 0.7---- 0.0------------
1987-06-22 17.9 23.8 11.2 8.5 75.8- 4.7 0.7---- 5.4------------
1987-06-21 17.7 25.0 10.4 8.2 68.0- 4.3 1.0---- 0.0------------
1987-06-20 16.9 23.2 7.4 4.8 61.8- 4.0 2.7---- 0.0------------
1987-06-19 11.8 16.6 7.4 5.7 77.8- 5.3 1.7---- 3.7------------
1987-06-18 11.7 18.6 5.9 3.9 79.3- 7.0 0.3---- 2.4------------
1987-06-17 12.6 16.4 8.7 7.5 72.3- 5.0 1.3---- 0.0------------
1987-06-16 16.7 26.9 12.1 12.3 77.0- 5.0 3.7---- 2.6------------
653.7 ms

 

Źródłem pochodzenia danych jest Instytut Meteorologii i Gospodarki Wodnej – Państwowy Instytut Badawczy. Dane Instytutu Meteorologii i Gospodarki Wodnej – Państwowego Instytutu Badawczego zostały przetworzone.

Dane źródłowe można odnaleźć na stronie https://dane.imgw.pl